Mount Hood Parkdale, OR

2:10 AM PDT on August 23, 2014 (GMT -0700)
Parkdale West | Change Station
CLOSE
Current Station
Personal Weather Station
Location: Mt Hood Parkdale, OR
Elevation: 1473 ft
Nearby Weather Stations

Elev 1473 ft 45.54 °N, 121.62 °W | Updated 6 seconds ago

Clear
Clear
50.0 °F
Feels Like 50.0 °F
N
1.0
Wind Variable Wind from SE
Gusts 0.0 mph

Today
High -- | Low -- °F
--% Chance of Precip.
Yesterday
High -- | Low -- °F
Precip. -- in
6:16 AM 8:00 PM
Waning Crescent, 4% visible
Pressure 30.03 in
Visibility 10.0 miles
Clouds Clear
Dew Point 48 °F
Humidity 92%
Rainfall 0.00 in
Snow Depth Not available.
UV 0 out of 12
Pollen 3.50 out of 12
Air Quality Not available.
Flu Activity Not available.
METAR KDLS 230753Z AUTO 32009G14KT 10SM CLR 19/13 A3004 RMK AO2 SLP169 T01940128 403060167

More Conditions Fewer Conditions

Pressure 30.03 in
Visibility 10.0 miles
Clouds Clear
Dew Point 48 °F
Humidity 92%
Rainfall 0.00 in
Snow Depth Not available.
UV 0 out of 12
Pollen 3.50 out of 12
Air Quality Not available.
Flu Activity Not available.
METAR KDLS 230753Z AUTO 32009G14KT 10SM CLR 19/13 A3004 RMK AO2 SLP169 T01940128 403060167

More Conditions Fewer Conditions

10-Day Weather Forecast

Almanac

Astronomy

Aug. 23, 2014 Rise Set
Actual Time 6:16 AM PDT 8:00 PM PDT
Civil Twilight 5:45 AM PDT 8:31 PM PDT
Nautical Twilight 5:07 AM PDT 9:09 PM PDT
Astronomical Twilight 4:25 AM PDT 9:50 PM PDT
Moon 4:36 AM PDT 6:48 PM PDT
Length of Visible Light 14h 45m
Length of Day
13h 43m
Tomorrow will be 2m 58s shorter.
Waning Crescent, 4% of the Moon is Illuminated
Today
Waning Crescent
Aug 25
New
Sep 2
First Quarter
Sep 8
Full
Sep 15
Last Quarter

Today's Extremes

State Highs State Lows

Community

WunderPhotos

Upload Photos

1,746,396 photos uploaded!

WunderBlogs® & News

By Dr. Jeff Masters
Director of Meteorology, Weather Underground
By Kari Strenfel
Meteorologist, Weather Underground
By Christopher C. Burt
Weather Historian, Weather Underground
August 23, 2014
August 23, 2014
August 22, 2014

Nearby

Snow Depth

Station Depth Elevation
Red Hill 0 in 4400 ft
Greenpoint 1 in 3200 ft
Blazed Alder 0 in 3650 ft
Mud Ridge 0 in 3800 ft
North Fork 1 in 3120 ft

Earthquake Activity

City Distance Mag. Time & Date
No recent earthquake activity has been reported nearby.
Minimum magnitude displayed is 2.5.

Coastal Water Temperatures

Place Temperature
No Stations Reporting

Nearby Weather Stations